Terminal Aerodrome Forecast
Issued by NWS Huntsville, AL

Home | Current Version | Previous Version | Text Only | Print | Product List | Glossary On
Versions: 1 2 3 4 5 6 7 8 9 10 11 12 13 14 15 16 17 18 19 20 21 22 23 24 25 26 27 28 29 30
960
FTUS44 KHUN 210520
TAFHSV
TAF
KHSV 210520Z 2106/2206 08005KT P6SM SKC
     FM211400 13011KT P6SM FEW250
     FM212100 13013G19KT P6SM SCT250
     FM220000 11011KT P6SM OVC100
     FM220500 11010KT P6SM OVC050=

USA.gov is the U.S. government's official web portal to all federal, state and local government web resources and services.